sensor_id;sensor_type;location;lat;lon;timestamp;P1;durP1;ratioP1;P2;durP2;ratioP2
26261;SDS011;13988;52.446;13.280;2023-07-30T00:02:04;3.03;;;2.67;;
26261;SDS011;13988;52.446;13.280;2023-07-30T00:04:30;2.78;;;2.47;;
26261;SDS011;13988;52.446;13.280;2023-07-30T00:06:55;2.40;;;2.20;;
26261;SDS011;13988;52.446;13.280;2023-07-30T00:09:21;5.88;;;2.53;;
26261;SDS011;13988;52.446;13.280;2023-07-30T00:11:46;4.88;;;2.13;;
26261;SDS011;13988;52.446;13.280;2023-07-30T00:14:12;2.80;;;2.05;;
26261;SDS011;13988;52.446;13.280;2023-07-30T00:16:38;2.55;;;2.15;;
26261;SDS011;13988;52.446;13.280;2023-07-30T00:19:03;5.88;;;2.88;;
26261;SDS011;13988;52.446;13.280;2023-07-30T00:21:29;3.60;;;2.00;;
26261;SDS011;13988;52.446;13.280;2023-07-30T00:23:55;2.67;;;2.30;;
26261;SDS011;13988;52.446;13.280;2023-07-30T00:26:20;2.72;;;2.22;;
26261;SDS011;13988;52.446;13.280;2023-07-30T00:28:47;5.88;;;2.25;;
26261;SDS011;13988;52.446;13.280;2023-07-30T00:31:13;2.47;;;1.95;;
26261;SDS011;13988;52.446;13.280;2023-07-30T00:33:38;2.67;;;2.05;;
26261;SDS011;13988;52.446;13.280;2023-07-30T00:36:04;4.63;;;2.42;;
26261;SDS011;13988;52.446;13.280;2023-07-30T00:38:29;2.13;;;1.90;;
26261;SDS011;13988;52.446;13.280;2023-07-30T00:40:55;2.90;;;2.25;;
26261;SDS011;13988;52.446;13.280;2023-07-30T00:43:21;2.30;;;2.10;;
26261;SDS011;13988;52.446;13.280;2023-07-30T00:45:47;2.35;;;1.75;;
26261;SDS011;13988;52.446;13.280;2023-07-30T00:48:13;1.90;;;1.67;;
26261;SDS011;13988;52.446;13.280;2023-07-30T00:50:39;3.67;;;2.00;;
26261;SDS011;13988;52.446;13.280;2023-07-30T00:53:07;3.15;;;2.25;;
26261;SDS011;13988;52.446;13.280;2023-07-30T00:55:34;2.28;;;1.95;;
26261;SDS011;13988;52.446;13.280;2023-07-30T00:58:00;2.50;;;2.25;;
26261;SDS011;13988;52.446;13.280;2023-07-30T01:00:27;2.25;;;2.05;;
26261;SDS011;13988;52.446;13.280;2023-07-30T01:02:54;2.20;;;1.88;;
26261;SDS011;13988;52.446;13.280;2023-07-30T01:05:20;2.53;;;1.75;;
26261;SDS011;13988;52.446;13.280;2023-07-30T01:07:46;2.22;;;1.73;;
26261;SDS011;13988;52.446;13.280;2023-07-30T01:10:11;3.65;;;2.35;;
26261;SDS011;13988;52.446;13.280;2023-07-30T01:12:37;3.10;;;1.67;;
26261;SDS011;13988;52.446;13.280;2023-07-30T01:15:05;2.20;;;1.95;;
26261;SDS011;13988;52.446;13.280;2023-07-30T01:17:32;3.85;;;2.28;;
26261;SDS011;13988;52.446;13.280;2023-07-30T01:19:58;4.00;;;1.70;;
26261;SDS011;13988;52.446;13.280;2023-07-30T01:22:23;2.58;;;2.25;;
26261;SDS011;13988;52.446;13.280;2023-07-30T01:24:49;2.53;;;2.08;;
26261;SDS011;13988;52.446;13.280;2023-07-30T01:27:31;2.10;;;1.90;;
26261;SDS011;13988;52.446;13.280;2023-07-30T01:30:06;6.00;;;2.30;;
26261;SDS011;13988;52.446;13.280;2023-07-30T01:32:39;1.85;;;1.67;;
26261;SDS011;13988;52.446;13.280;2023-07-30T01:35:07;1.88;;;1.65;;
26261;SDS011;13988;52.446;13.280;2023-07-30T01:37:33;2.30;;;1.92;;
26261;SDS011;13988;52.446;13.280;2023-07-30T01:40:00;3.92;;;1.85;;
26261;SDS011;13988;52.446;13.280;2023-07-30T01:42:30;2.70;;;1.67;;
26261;SDS011;13988;52.446;13.280;2023-07-30T01:44:55;2.10;;;1.90;;
26261;SDS011;13988;52.446;13.280;2023-07-30T01:47:21;2.30;;;1.95;;
26261;SDS011;13988;52.446;13.280;2023-07-30T01:49:47;2.08;;;1.70;;
26261;SDS011;13988;52.446;13.280;2023-07-30T01:52:12;4.57;;;2.20;;
26261;SDS011;13988;52.446;13.280;2023-07-30T01:54:38;2.90;;;2.28;;
26261;SDS011;13988;52.446;13.280;2023-07-30T01:57:04;3.45;;;2.50;;
26261;SDS011;13988;52.446;13.280;2023-07-30T01:59:29;2.47;;;2.15;;
26261;SDS011;13988;52.446;13.280;2023-07-30T02:01:55;2.50;;;2.30;;
26261;SDS011;13988;52.446;13.280;2023-07-30T02:04:20;2.67;;;2.33;;
26261;SDS011;13988;52.446;13.280;2023-07-30T02:06:46;2.78;;;2.38;;
26261;SDS011;13988;52.446;13.280;2023-07-30T02:09:12;1.98;;;1.88;;
26261;SDS011;13988;52.446;13.280;2023-07-30T02:11:37;2.10;;;1.90;;
26261;SDS011;13988;52.446;13.280;2023-07-30T02:14:03;4.40;;;1.98;;
26261;SDS011;13988;52.446;13.280;2023-07-30T02:16:28;1.73;;;1.63;;
26261;SDS011;13988;52.446;13.280;2023-07-30T02:18:54;3.90;;;2.03;;
26261;SDS011;13988;52.446;13.280;2023-07-30T02:21:20;2.17;;;1.98;;
26261;SDS011;13988;52.446;13.280;2023-07-30T02:23:45;2.63;;;1.60;;
26261;SDS011;13988;52.446;13.280;2023-07-30T02:26:11;5.88;;;1.80;;
26261;SDS011;13988;52.446;13.280;2023-07-30T02:28:36;3.05;;;1.80;;
26261;SDS011;13988;52.446;13.280;2023-07-30T02:31:02;2.03;;;1.83;;
26261;SDS011;13988;52.446;13.280;2023-07-30T02:33:28;4.03;;;2.60;;
26261;SDS011;13988;52.446;13.280;2023-07-30T02:35:53;1.80;;;1.63;;
26261;SDS011;13988;52.446;13.280;2023-07-30T02:38:19;2.25;;;2.05;;
26261;SDS011;13988;52.446;13.280;2023-07-30T02:40:44;7.07;;;2.03;;
26261;SDS011;13988;52.446;13.280;2023-07-30T02:43:10;2.55;;;2.00;;
26261;SDS011;13988;52.446;13.280;2023-07-30T02:45:36;4.00;;;1.95;;
26261;SDS011;13988;52.446;13.280;2023-07-30T02:48:02;1.95;;;1.77;;
26261;SDS011;13988;52.446;13.280;2023-07-30T02:50:28;3.83;;;2.40;;
26261;SDS011;13988;52.446;13.280;2023-07-30T02:52:53;2.65;;;2.25;;
26261;SDS011;13988;52.446;13.280;2023-07-30T02:55:19;2.22;;;1.95;;
26261;SDS011;13988;52.446;13.280;2023-07-30T02:57:44;3.38;;;2.50;;
26261;SDS011;13988;52.446;13.280;2023-07-30T03:00:10;1.70;;;1.60;;
26261;SDS011;13988;52.446;13.280;2023-07-30T03:02:36;1.98;;;1.85;;
26261;SDS011;13988;52.446;13.280;2023-07-30T03:05:02;2.70;;;2.30;;
26261;SDS011;13988;52.446;13.280;2023-07-30T03:07:27;2.42;;;2.15;;
26261;SDS011;13988;52.446;13.280;2023-07-30T03:09:53;2.08;;;1.88;;
26261;SDS011;13988;52.446;13.280;2023-07-30T03:12:18;2.42;;;2.20;;
26261;SDS011;13988;52.446;13.280;2023-07-30T03:14:44;2.42;;;2.10;;
26261;SDS011;13988;52.446;13.280;2023-07-30T03:17:10;2.00;;;1.80;;
26261;SDS011;13988;52.446;13.280;2023-07-30T03:19:35;2.22;;;2.03;;
26261;SDS011;13988;52.446;13.280;2023-07-30T03:22:01;3.55;;;2.25;;
26261;SDS011;13988;52.446;13.280;2023-07-30T03:24:27;2.25;;;1.80;;
26261;SDS011;13988;52.446;13.280;2023-07-30T03:26:52;2.47;;;2.28;;
26261;SDS011;13988;52.446;13.280;2023-07-30T03:29:18;2.80;;;2.20;;
26261;SDS011;13988;52.446;13.280;2023-07-30T03:31:43;2.63;;;2.28;;
26261;SDS011;13988;52.446;13.280;2023-07-30T03:34:09;2.95;;;2.33;;
26261;SDS011;13988;52.446;13.280;2023-07-30T03:36:34;2.58;;;2.30;;
26261;SDS011;13988;52.446;13.280;2023-07-30T03:39:00;2.72;;;2.53;;
26261;SDS011;13988;52.446;13.280;2023-07-30T03:41:26;6.22;;;2.38;;
26261;SDS011;13988;52.446;13.280;2023-07-30T03:43:51;2.42;;;2.22;;
26261;SDS011;13988;52.446;13.280;2023-07-30T03:46:17;3.00;;;2.70;;
26261;SDS011;13988;52.446;13.280;2023-07-30T03:48:42;3.45;;;3.15;;
26261;SDS011;13988;52.446;13.280;2023-07-30T03:51:08;3.45;;;2.50;;
26261;SDS011;13988;52.446;13.280;2023-07-30T03:53:34;2.35;;;2.15;;
26261;SDS011;13988;52.446;13.280;2023-07-30T03:55:59;2.53;;;2.17;;
26261;SDS011;13988;52.446;13.280;2023-07-30T03:58:25;3.17;;;2.55;;
26261;SDS011;13988;52.446;13.280;2023-07-30T04:00:51;4.43;;;2.42;;
26261;SDS011;13988;52.446;13.280;2023-07-30T04:03:17;5.70;;;2.92;;
26261;SDS011;13988;52.446;13.280;2023-07-30T04:05:42;3.10;;;2.80;;
26261;SDS011;13988;52.446;13.280;2023-07-30T04:08:08;3.40;;;2.97;;
26261;SDS011;13988;52.446;13.280;2023-07-30T04:10:34;6.13;;;2.70;;
26261;SDS011;13988;52.446;13.280;2023-07-30T04:12:59;3.65;;;3.13;;
26261;SDS011;13988;52.446;13.280;2023-07-30T04:15:25;3.17;;;2.88;;
26261;SDS011;13988;52.446;13.280;2023-07-30T04:17:50;3.60;;;3.20;;
26261;SDS011;13988;52.446;13.280;2023-07-30T04:20:16;2.60;;;2.40;;
26261;SDS011;13988;52.446;13.280;2023-07-30T04:22:43;3.00;;;2.70;;
26261;SDS011;13988;52.446;13.280;2023-07-30T04:25:08;3.67;;;3.38;;
26261;SDS011;13988;52.446;13.280;2023-07-30T04:27:35;3.95;;;3.50;;
26261;SDS011;13988;52.446;13.280;2023-07-30T04:30:01;3.33;;;3.03;;
26261;SDS011;13988;52.446;13.280;2023-07-30T04:32:27;2.72;;;2.50;;
26261;SDS011;13988;52.446;13.280;2023-07-30T04:34:53;3.53;;;3.22;;
26261;SDS011;13988;52.446;13.280;2023-07-30T04:37:18;2.58;;;2.38;;
26261;SDS011;13988;52.446;13.280;2023-07-30T04:39:44;3.50;;;3.20;;
26261;SDS011;13988;52.446;13.280;2023-07-30T04:42:10;3.75;;;3.08;;
26261;SDS011;13988;52.446;13.280;2023-07-30T04:44:35;2.85;;;2.65;;
26261;SDS011;13988;52.446;13.280;2023-07-30T04:47:01;3.35;;;3.05;;
26261;SDS011;13988;52.446;13.280;2023-07-30T04:49:26;4.10;;;3.03;;
26261;SDS011;13988;52.446;13.280;2023-07-30T04:51:52;3.40;;;3.10;;
26261;SDS011;13988;52.446;13.280;2023-07-30T04:54:17;3.83;;;3.03;;
26261;SDS011;13988;52.446;13.280;2023-07-30T04:56:43;3.22;;;2.92;;
26261;SDS011;13988;52.446;13.280;2023-07-30T04:59:09;6.75;;;3.03;;
26261;SDS011;13988;52.446;13.280;2023-07-30T05:01:34;2.63;;;2.42;;
26261;SDS011;13988;52.446;13.280;2023-07-30T05:04:00;4.40;;;3.30;;
26261;SDS011;13988;52.446;13.280;2023-07-30T05:06:25;3.78;;;2.83;;
26261;SDS011;13988;52.446;13.280;2023-07-30T05:08:51;5.13;;;2.97;;
26261;SDS011;13988;52.446;13.280;2023-07-30T05:11:16;3.20;;;3.00;;
26261;SDS011;13988;52.446;13.280;2023-07-30T05:13:42;3.80;;;2.85;;
26261;SDS011;13988;52.446;13.280;2023-07-30T05:16:08;3.55;;;3.25;;
26261;SDS011;13988;52.446;13.280;2023-07-30T05:18:33;4.05;;;2.60;;
26261;SDS011;13988;52.446;13.280;2023-07-30T05:20:59;2.95;;;2.65;;
26261;SDS011;13988;52.446;13.280;2023-07-30T05:23:25;3.20;;;2.42;;
26261;SDS011;13988;52.446;13.280;2023-07-30T05:25:50;3.15;;;2.65;;
26261;SDS011;13988;52.446;13.280;2023-07-30T05:28:16;3.35;;;2.90;;
26261;SDS011;13988;52.446;13.280;2023-07-30T05:30:41;3.33;;;2.90;;
26261;SDS011;13988;52.446;13.280;2023-07-30T05:33:07;4.10;;;3.33;;
26261;SDS011;13988;52.446;13.280;2023-07-30T05:35:33;3.05;;;2.70;;
26261;SDS011;13988;52.446;13.280;2023-07-30T05:37:59;3.33;;;3.00;;
26261;SDS011;13988;52.446;13.280;2023-07-30T05:40:24;4.70;;;2.60;;
26261;SDS011;13988;52.446;13.280;2023-07-30T05:42:50;2.38;;;2.17;;
26261;SDS011;13988;52.446;13.280;2023-07-30T05:45:16;3.05;;;2.75;;
26261;SDS011;13988;52.446;13.280;2023-07-30T05:47:41;3.40;;;2.55;;
26261;SDS011;13988;52.446;13.280;2023-07-30T05:50:07;3.25;;;2.97;;
26261;SDS011;13988;52.446;13.280;2023-07-30T05:52:33;2.50;;;2.30;;
26261;SDS011;13988;52.446;13.280;2023-07-30T05:54:59;4.18;;;3.50;;
26261;SDS011;13988;52.446;13.280;2023-07-30T05:57:25;3.20;;;2.65;;
26261;SDS011;13988;52.446;13.280;2023-07-30T05:59:50;2.92;;;2.40;;
26261;SDS011;13988;52.446;13.280;2023-07-30T06:02:16;2.95;;;2.38;;
26261;SDS011;13988;52.446;13.280;2023-07-30T06:04:42;2.17;;;2.03;;
26261;SDS011;13988;52.446;13.280;2023-07-30T06:07:08;2.75;;;2.50;;
26261;SDS011;13988;52.446;13.280;2023-07-30T06:09:33;3.08;;;2.15;;
26261;SDS011;13988;52.446;13.280;2023-07-30T06:11:59;2.40;;;2.20;;
26261;SDS011;13988;52.446;13.280;2023-07-30T06:14:25;2.83;;;2.42;;
26261;SDS011;13988;52.446;13.280;2023-07-30T06:16:51;3.00;;;2.38;;
26261;SDS011;13988;52.446;13.280;2023-07-30T06:19:18;2.72;;;2.50;;
26261;SDS011;13988;52.446;13.280;2023-07-30T06:21:43;2.30;;;2.10;;
26261;SDS011;13988;52.446;13.280;2023-07-30T06:24:09;2.85;;;2.10;;
26261;SDS011;13988;52.446;13.280;2023-07-30T06:26:34;2.30;;;2.10;;
26261;SDS011;13988;52.446;13.280;2023-07-30T06:29:00;4.75;;;2.13;;
26261;SDS011;13988;52.446;13.280;2023-07-30T06:31:26;2.47;;;2.28;;
26261;SDS011;13988;52.446;13.280;2023-07-30T06:33:52;2.47;;;2.28;;
26261;SDS011;13988;52.446;13.280;2023-07-30T06:36:17;3.03;;;2.22;;
26261;SDS011;13988;52.446;13.280;2023-07-30T06:38:43;3.10;;;1.77;;
26261;SDS011;13988;52.446;13.280;2023-07-30T06:41:08;2.30;;;2.10;;
26261;SDS011;13988;52.446;13.280;2023-07-30T06:43:34;3.88;;;2.35;;
26261;SDS011;13988;52.446;13.280;2023-07-30T06:46:00;2.35;;;2.17;;
26261;SDS011;13988;52.446;13.280;2023-07-30T06:48:25;2.22;;;2.03;;
26261;SDS011;13988;52.446;13.280;2023-07-30T06:50:51;3.30;;;2.20;;
26261;SDS011;13988;52.446;13.280;2023-07-30T06:53:17;2.22;;;2.03;;
26261;SDS011;13988;52.446;13.280;2023-07-30T06:55:42;3.03;;;2.20;;
26261;SDS011;13988;52.446;13.280;2023-07-30T06:58:08;2.92;;;2.60;;
26261;SDS011;13988;52.446;13.280;2023-07-30T07:00:34;1.90;;;1.80;;
26261;SDS011;13988;52.446;13.280;2023-07-30T07:03:00;3.47;;;2.38;;
26261;SDS011;13988;52.446;13.280;2023-07-30T07:05:25;3.25;;;2.15;;
26261;SDS011;13988;52.446;13.280;2023-07-30T07:07:51;2.20;;;2.00;;
26261;SDS011;13988;52.446;13.280;2023-07-30T07:10:17;2.28;;;1.58;;
26261;SDS011;13988;52.446;13.280;2023-07-30T07:12:42;1.95;;;1.75;;
26261;SDS011;13988;52.446;13.280;2023-07-30T07:15:08;2.03;;;1.40;;
26261;SDS011;13988;52.446;13.280;2023-07-30T07:17:34;2.30;;;1.67;;
26261;SDS011;13988;52.446;13.280;2023-07-30T07:20:00;2.38;;;1.88;;
26261;SDS011;13988;52.446;13.280;2023-07-30T07:22:26;2.15;;;1.55;;
26261;SDS011;13988;52.446;13.280;2023-07-30T07:24:51;2.40;;;1.70;;
26261;SDS011;13988;52.446;13.280;2023-07-30T07:27:18;3.35;;;1.80;;
26261;SDS011;13988;52.446;13.280;2023-07-30T07:29:43;1.67;;;1.33;;
26261;SDS011;13988;52.446;13.280;2023-07-30T07:32:09;1.63;;;1.40;;
26261;SDS011;13988;52.446;13.280;2023-07-30T07:34:35;1.40;;;1.30;;
26261;SDS011;13988;52.446;13.280;2023-07-30T07:37:01;1.90;;;1.50;;
26261;SDS011;13988;52.446;13.280;2023-07-30T07:39:27;1.80;;;1.70;;
26261;SDS011;13988;52.446;13.280;2023-07-30T07:41:53;2.47;;;1.33;;
26261;SDS011;13988;52.446;13.280;2023-07-30T07:44:19;2.25;;;1.88;;
26261;SDS011;13988;52.446;13.280;2023-07-30T07:46:45;1.98;;;1.80;;
26261;SDS011;13988;52.446;13.280;2023-07-30T07:49:10;4.40;;;1.70;;
26261;SDS011;13988;52.446;13.280;2023-07-30T07:51:36;1.50;;;1.40;;
26261;SDS011;13988;52.446;13.280;2023-07-30T07:54:01;2.45;;;1.52;;
26261;SDS011;13988;52.446;13.280;2023-07-30T07:56:27;2.83;;;1.80;;
26261;SDS011;13988;52.446;13.280;2023-07-30T07:58:54;1.88;;;1.35;;
26261;SDS011;13988;52.446;13.280;2023-07-30T08:01:19;2.20;;;1.65;;
26261;SDS011;13988;52.446;13.280;2023-07-30T08:03:45;2.22;;;1.67;;
26261;SDS011;13988;52.446;13.280;2023-07-30T08:06:11;2.13;;;1.83;;
26261;SDS011;13988;52.446;13.280;2023-07-30T08:08:36;4.78;;;2.70;;
26261;SDS011;13988;52.446;13.280;2023-07-30T08:11:06;2.28;;;1.70;;
26261;SDS011;13988;52.446;13.280;2023-07-30T08:13:32;2.00;;;1.80;;
26261;SDS011;13988;52.446;13.280;2023-07-30T08:15:58;1.98;;;1.42;;
26261;SDS011;13988;52.446;13.280;2023-07-30T08:18:24;3.45;;;1.70;;
26261;SDS011;13988;52.446;13.280;2023-07-30T08:20:50;3.08;;;1.90;;
26261;SDS011;13988;52.446;13.280;2023-07-30T08:23:15;2.60;;;1.90;;
26261;SDS011;13988;52.446;13.280;2023-07-30T08:25:41;2.92;;;2.08;;
26261;SDS011;13988;52.446;13.280;2023-07-30T08:28:06;3.65;;;1.95;;
26261;SDS011;13988;52.446;13.280;2023-07-30T08:30:32;1.80;;;1.60;;
26261;SDS011;13988;52.446;13.280;2023-07-30T08:32:58;3.15;;;1.80;;
26261;SDS011;13988;52.446;13.280;2023-07-30T08:35:23;2.20;;;1.55;;
26261;SDS011;13988;52.446;13.280;2023-07-30T08:37:49;1.85;;;1.75;;
26261;SDS011;13988;52.446;13.280;2023-07-30T08:40:15;3.38;;;1.70;;
26261;SDS011;13988;52.446;13.280;2023-07-30T08:42:40;1.85;;;1.65;;
26261;SDS011;13988;52.446;13.280;2023-07-30T08:45:06;1.52;;;1.42;;
26261;SDS011;13988;52.446;13.280;2023-07-30T08:47:35;1.70;;;1.60;;
26261;SDS011;13988;52.446;13.280;2023-07-30T08:50:01;1.92;;;1.65;;
26261;SDS011;13988;52.446;13.280;2023-07-30T08:52:27;2.90;;;1.90;;
26261;SDS011;13988;52.446;13.280;2023-07-30T08:54:54;2.22;;;1.63;;
26261;SDS011;13988;52.446;13.280;2023-07-30T08:57:22;2.38;;;1.55;;
26261;SDS011;13988;52.446;13.280;2023-07-30T08:59:53;2.97;;;1.83;;
26261;SDS011;13988;52.446;13.280;2023-07-30T09:02:37;1.73;;;1.60;;
26261;SDS011;13988;52.446;13.280;2023-07-30T09:05:06;3.22;;;1.90;;
26261;SDS011;13988;52.446;13.280;2023-07-30T09:07:32;2.80;;;1.65;;
26261;SDS011;13988;52.446;13.280;2023-07-30T09:09:57;6.25;;;2.08;;
26261;SDS011;13988;52.446;13.280;2023-07-30T09:12:30;2.03;;;1.70;;
26261;SDS011;13988;52.446;13.280;2023-07-30T09:14:57;2.58;;;1.60;;
26261;SDS011;13988;52.446;13.280;2023-07-30T09:17:23;5.35;;;1.92;;
26261;SDS011;13988;52.446;13.280;2023-07-30T09:19:50;5.40;;;1.55;;
26261;SDS011;13988;52.446;13.280;2023-07-30T09:22:32;1.98;;;1.45;;
26261;SDS011;13988;52.446;13.280;2023-07-30T09:25:01;2.33;;;1.50;;
26261;SDS011;13988;52.446;13.280;2023-07-30T09:27:28;1.38;;;1.25;;
26261;SDS011;13988;52.446;13.280;2023-07-30T09:29:58;2.85;;;1.77;;
26261;SDS011;13988;52.446;13.280;2023-07-30T09:32:28;1.88;;;1.77;;
26261;SDS011;13988;52.446;13.280;2023-07-30T09:34:56;2.10;;;1.48;;
26261;SDS011;13988;52.446;13.280;2023-07-30T09:37:40;3.97;;;1.70;;
26261;SDS011;13988;52.446;13.280;2023-07-30T09:40:07;3.92;;;1.48;;
26261;SDS011;13988;52.446;13.280;2023-07-30T09:42:34;1.83;;;1.48;;
26261;SDS011;13988;52.446;13.280;2023-07-30T09:45:04;3.85;;;1.67;;
26261;SDS011;13988;52.446;13.280;2023-07-30T09:47:36;5.03;;;2.25;;
26261;SDS011;13988;52.446;13.280;2023-07-30T09:50:02;3.47;;;1.70;;
26261;SDS011;13988;52.446;13.280;2023-07-30T09:52:29;1.95;;;1.55;;
26261;SDS011;13988;52.446;13.280;2023-07-30T09:54:55;2.10;;;1.90;;
26261;SDS011;13988;52.446;13.280;2023-07-30T09:57:22;2.08;;;1.30;;
26261;SDS011;13988;52.446;13.280;2023-07-30T09:59:48;3.20;;;2.17;;
26261;SDS011;13988;52.446;13.280;2023-07-30T10:02:14;2.65;;;1.40;;
26261;SDS011;13988;52.446;13.280;2023-07-30T10:04:43;1.67;;;1.50;;
26261;SDS011;13988;52.446;13.280;2023-07-30T10:07:13;1.98;;;1.45;;
26261;SDS011;13988;52.446;13.280;2023-07-30T10:09:43;2.45;;;1.58;;
26261;SDS011;13988;52.446;13.280;2023-07-30T10:12:12;3.70;;;1.70;;
26261;SDS011;13988;52.446;13.280;2023-07-30T10:14:42;6.88;;;1.17;;
26261;SDS011;13988;52.446;13.280;2023-07-30T10:17:09;2.88;;;1.40;;
26261;SDS011;13988;52.446;13.280;2023-07-30T10:19:36;1.85;;;1.58;;
26261;SDS011;13988;52.446;13.280;2023-07-30T10:24:42;1.67;;;1.20;;
26261;SDS011;13988;52.446;13.280;2023-07-30T10:27:25;2.35;;;1.40;;
26261;SDS011;13988;52.446;13.280;2023-07-30T10:30:37;4.65;;;1.48;;
26261;SDS011;13988;52.446;13.280;2023-07-30T10:32:39;1.40;;;1.30;;
26261;SDS011;13988;52.446;13.280;2023-07-30T10:41:08;2.85;;;1.75;;
26261;SDS011;13988;52.446;13.280;2023-07-30T10:43:38;1.77;;;1.33;;
26261;SDS011;13988;52.446;13.280;2023-07-30T10:46:06;1.95;;;1.42;;
26261;SDS011;13988;52.446;13.280;2023-07-30T10:48:35;5.05;;;1.60;;
26261;SDS011;13988;52.446;13.280;2023-07-30T10:51:04;2.50;;;1.40;;
26261;SDS011;13988;52.446;13.280;2023-07-30T10:53:31;1.77;;;1.40;;
26261;SDS011;13988;52.446;13.280;2023-07-30T10:56:00;2.53;;;1.50;;
26261;SDS011;13988;52.446;13.280;2023-07-30T10:58:29;2.95;;;1.55;;
26261;SDS011;13988;52.446;13.280;2023-07-30T11:00:58;2.72;;;1.17;;
26261;SDS011;13988;52.446;13.280;2023-07-30T11:03:26;2.92;;;1.08;;
26261;SDS011;13988;52.446;13.280;2023-07-30T11:05:53;3.55;;;1.20;;
26261;SDS011;13988;52.446;13.280;2023-07-30T11:08:19;2.70;;;1.52;;
26261;SDS011;13988;52.446;13.280;2023-07-30T11:10:46;2.55;;;1.08;;
26261;SDS011;13988;52.446;13.280;2023-07-30T11:13:13;1.60;;;1.48;;
26261;SDS011;13988;52.446;13.280;2023-07-30T11:15:42;1.88;;;1.33;;
26261;SDS011;13988;52.446;13.280;2023-07-30T11:18:09;1.33;;;0.90;;
26261;SDS011;13988;52.446;13.280;2023-07-30T11:20:36;3.33;;;1.33;;
26261;SDS011;13988;52.446;13.280;2023-07-30T11:23:02;3.30;;;1.10;;
26261;SDS011;13988;52.446;13.280;2023-07-30T11:25:44;1.92;;;1.00;;
26261;SDS011;13988;52.446;13.280;2023-07-30T11:28:11;7.75;;;1.40;;
26261;SDS011;13988;52.446;13.280;2023-07-30T11:30:36;2.15;;;1.50;;
26261;SDS011;13988;52.446;13.280;2023-07-30T11:33:02;1.98;;;1.27;;
26261;SDS011;13988;52.446;13.280;2023-07-30T11:35:28;1.95;;;1.17;;
26261;SDS011;13988;52.446;13.280;2023-07-30T11:37:53;2.67;;;1.20;;
26261;SDS011;13988;52.446;13.280;2023-07-30T11:40:20;1.77;;;1.25;;
26261;SDS011;13988;52.446;13.280;2023-07-30T11:42:46;3.13;;;1.30;;
26261;SDS011;13988;52.446;13.280;2023-07-30T11:45:19;1.85;;;1.30;;
26261;SDS011;13988;52.446;13.280;2023-07-30T11:47:46;1.45;;;1.27;;
26261;SDS011;13988;52.446;13.280;2023-07-30T11:50:12;3.05;;;1.35;;
26261;SDS011;13988;52.446;13.280;2023-07-30T11:52:50;2.67;;;1.40;;
26261;SDS011;13988;52.446;13.280;2023-07-30T11:55:20;5.47;;;1.30;;
26261;SDS011;13988;52.446;13.280;2023-07-30T11:57:47;1.88;;;1.25;;
26261;SDS011;13988;52.446;13.280;2023-07-30T12:00:13;2.35;;;1.20;;
26261;SDS011;13988;52.446;13.280;2023-07-30T12:02:39;4.38;;;1.30;;
26261;SDS011;13988;52.446;13.280;2023-07-30T12:05:05;2.10;;;1.25;;
26261;SDS011;13988;52.446;13.280;2023-07-30T12:07:32;6.18;;;1.83;;
26261;SDS011;13988;52.446;13.280;2023-07-30T12:10:11;1.63;;;1.42;;
26261;SDS011;13988;52.446;13.280;2023-07-30T12:12:44;4.32;;;1.58;;
26261;SDS011;13988;52.446;13.280;2023-07-30T12:15:10;3.33;;;1.55;;
26261;SDS011;13988;52.446;13.280;2023-07-30T12:17:37;1.70;;;1.10;;
26261;SDS011;13988;52.446;13.280;2023-07-30T12:20:03;3.55;;;1.67;;
26261;SDS011;13988;52.446;13.280;2023-07-30T12:22:31;1.50;;;1.20;;
26261;SDS011;13988;52.446;13.280;2023-07-30T12:24:59;2.63;;;1.65;;
26261;SDS011;13988;52.446;13.280;2023-07-30T12:27:28;3.58;;;1.45;;
26261;SDS011;13988;52.446;13.280;2023-07-30T12:29:54;3.88;;;2.08;;
26261;SDS011;13988;52.446;13.280;2023-07-30T12:32:20;2.00;;;1.38;;
26261;SDS011;13988;52.446;13.280;2023-07-30T12:34:46;2.15;;;1.48;;
26261;SDS011;13988;52.446;13.280;2023-07-30T12:37:11;2.85;;;1.30;;
26261;SDS011;13988;52.446;13.280;2023-07-30T12:39:37;1.40;;;1.30;;
26261;SDS011;13988;52.446;13.280;2023-07-30T12:42:03;2.35;;;1.48;;
26261;SDS011;13988;52.446;13.280;2023-07-30T12:44:28;1.42;;;1.17;;
26261;SDS011;13988;52.446;13.280;2023-07-30T12:46:54;2.85;;;1.63;;
26261;SDS011;13988;52.446;13.280;2023-07-30T12:49:20;1.20;;;1.10;;
26261;SDS011;13988;52.446;13.280;2023-07-30T12:51:45;4.63;;;1.20;;
26261;SDS011;13988;52.446;13.280;2023-07-30T12:54:11;3.35;;;1.77;;
26261;SDS011;13988;52.446;13.280;2023-07-30T12:56:37;1.50;;;1.33;;
26261;SDS011;13988;52.446;13.280;2023-07-30T12:59:02;1.98;;;1.40;;
26261;SDS011;13988;52.446;13.280;2023-07-30T13:01:28;1.63;;;1.40;;
26261;SDS011;13988;52.446;13.280;2023-07-30T13:03:53;3.03;;;1.55;;
26261;SDS011;13988;52.446;13.280;2023-07-30T13:06:22;2.35;;;1.48;;
26261;SDS011;13988;52.446;13.280;2023-07-30T13:08:48;1.58;;;1.45;;
26261;SDS011;13988;52.446;13.280;2023-07-30T13:11:13;1.50;;;1.23;;
26261;SDS011;13988;52.446;13.280;2023-07-30T13:13:39;2.97;;;1.30;;
26261;SDS011;13988;52.446;13.280;2023-07-30T13:16:05;2.15;;;1.58;;
26261;SDS011;13988;52.446;13.280;2023-07-30T13:18:30;1.98;;;1.45;;
26261;SDS011;13988;52.446;13.280;2023-07-30T13:20:56;3.20;;;1.60;;
26261;SDS011;13988;52.446;13.280;2023-07-30T13:23:22;3.53;;;1.33;;
26261;SDS011;13988;52.446;13.280;2023-07-30T13:25:50;2.05;;;1.35;;
26261;SDS011;13988;52.446;13.280;2023-07-30T13:28:15;1.50;;;1.40;;
26261;SDS011;13988;52.446;13.280;2023-07-30T13:30:41;2.33;;;1.33;;
26261;SDS011;13988;52.446;13.280;2023-07-30T13:33:07;2.55;;;1.42;;
26261;SDS011;13988;52.446;13.280;2023-07-30T13:35:32;1.52;;;1.40;;
26261;SDS011;13988;52.446;13.280;2023-07-30T13:37:58;2.60;;;1.35;;
26261;SDS011;13988;52.446;13.280;2023-07-30T13:40:24;1.65;;;1.45;;
26261;SDS011;13988;52.446;13.280;2023-07-30T13:42:50;1.85;;;1.20;;
26261;SDS011;13988;52.446;13.280;2023-07-30T13:45:15;1.40;;;1.20;;
26261;SDS011;13988;52.446;13.280;2023-07-30T13:47:41;2.25;;;1.95;;
26261;SDS011;13988;52.446;13.280;2023-07-30T13:50:07;3.10;;;0.93;;
26261;SDS011;13988;52.446;13.280;2023-07-30T13:52:32;5.30;;;1.65;;
26261;SDS011;13988;52.446;13.280;2023-07-30T13:54:58;1.20;;;1.10;;
26261;SDS011;13988;52.446;13.280;2023-07-30T13:57:24;4.45;;;0.98;;
26261;SDS011;13988;52.446;13.280;2023-07-30T13:59:51;1.15;;;1.00;;
26261;SDS011;13988;52.446;13.280;2023-07-30T14:02:17;2.42;;;0.90;;
26261;SDS011;13988;52.446;13.280;2023-07-30T14:04:43;0.82;;;0.80;;
26261;SDS011;13988;52.446;13.280;2023-07-30T14:07:08;1.05;;;0.95;;
26261;SDS011;13988;52.446;13.280;2023-07-30T14:09:34;1.10;;;0.95;;
26261;SDS011;13988;52.446;13.280;2023-07-30T14:12:01;1.30;;;0.88;;
26261;SDS011;13988;52.446;13.280;2023-07-30T14:14:28;1.23;;;0.95;;
26261;SDS011;13988;52.446;13.280;2023-07-30T14:16:53;2.15;;;1.05;;
26261;SDS011;13988;52.446;13.280;2023-07-30T14:19:20;1.27;;;0.77;;
26261;SDS011;13988;52.446;13.280;2023-07-30T14:21:46;1.50;;;0.95;;
26261;SDS011;13988;52.446;13.280;2023-07-30T14:24:11;2.63;;;0.75;;
26261;SDS011;13988;52.446;13.280;2023-07-30T14:26:37;0.90;;;0.90;;
26261;SDS011;13988;52.446;13.280;2023-07-30T14:29:03;1.75;;;1.02;;
26261;SDS011;13988;52.446;13.280;2023-07-30T14:31:28;3.92;;;1.08;;
26261;SDS011;13988;52.446;13.280;2023-07-30T14:33:54;2.42;;;0.90;;
26261;SDS011;13988;52.446;13.280;2023-07-30T14:36:20;1.30;;;1.02;;
26261;SDS011;13988;52.446;13.280;2023-07-30T14:38:45;1.30;;;0.90;;